Startpagina
METAR-TAF:

METAR-TAF

Vliegvelden :

Vliegbasis Gilze-Rijen

Gilze-Rijen, Nederland

breedte: 51-34N, lengte: 004-56E, hoogte: 15 m

Actueel weer

Dit bericht is 17 minuten geleden gemaakt, om 06:39 UTC
Wind 4 kt uit het zuidwesten, variërend tussen het zuiden en het westen
Temperatuur 14°C
Vochtigheid 88%
Druk 1016 hPa
Zicht: 7000 m
Geheel bewolkt op 7600 ft
nevel

METAR: EHGR 170639Z AUTO 22004KT 190V270 7000 BR OVC076 14/12 Q1016 WHT NOSIG

Tijdstip: 08:56 (06:56 UTC)

Verwachting

Dit bericht is 2 uur en het 10 minuten geleden gemaakt, om 04:46 UTC
Verwachting geldig van 17 om 05 UTC tot 17 om 17 UTC
Wind 2 kt uit variabele richting
Zicht: 7000 m
Kans 30% :
Tijdelijke
van 17 om 05 UTC tot 17 om 07 UTC
Zicht: 3500 m
Ondiepe mist, nevel
Wijzigt naar
van 17 om 07 UTC tot 17 om 09 UTC
Wind 6 kt uit het westzuidwesten

TAF: EHGR 170446Z 1705/1717 VRB02KT 7000 NSC PROB30 TEMPO 1705/1707 3500 MIFG BR BECMG 1707/1709 25006KT

Waarnemingen en weersverwachtingen van meer dan 4000 vliegvelden (METAR en TAF).

De beschikbare stations zijn de gele en rode punten op de kaart.

Ga met uw muis naar het station om de naam te zien.

Klik dan om waarnemingen en weersverwachtingen te zien.

kaart wijzigen: klik op de groene knoppen met een zwart kruis om in te zoomen, op de groene knop met een streepje om uit te zoomen of op de groene pijlen voor aangrenzende kaarten.


METAR-TAF: